Time;durP1;ratioP1;P1;durP2;ratioP2;P2;SDS_P1;SDS_P2;PMS_P1;PMS_P2;Temp;Humidity;BMP_temperature;BMP_pressure;BME280_temperature;BME280_humidity;BME280_pressure;Samples;Min_cycle;Max_cycle;Signal;HPM_P1;HPM_P2
2021/01/18 00:00:15;;;;;;;11.48;4.82;;;3.10;99.90;;;;;;5069485;28;20080;-66
2021/01/18 00:02:41;;;;;;;20.10;4.65;;;3.10;99.90;;;;;;5069755;28;20494;-68
2021/01/18 00:05:08;;;;;;;18.83;4.50;;;3.10;99.90;;;;;;5071241;28;20052;-68
2021/01/18 00:07:46;;;;;;;16.92;4.35;;;3.00;99.90;;;;;;5072347;28;20442;-68
2021/01/18 00:10:14;;;;;;;15.45;3.63;;;3.00;99.90;;;;;;5072906;28;20487;-68
2021/01/18 00:12:43;;;;;;;10.60;4.50;;;3.00;99.90;;;;;;5072984;28;20060;-67
2021/01/18 00:15:09;;;;;;;18.40;4.70;;;3.00;99.90;;;;;;5072144;28;20040;-66
2021/01/18 00:17:35;;;;;;;20.67;4.55;;;3.00;99.90;;;;;;5073164;28;20027;-67
2021/01/18 00:20:01;;;;;;;17.10;4.30;;;3.00;99.90;;;;;;5073072;28;20031;-67
2021/01/18 00:22:26;;;;;;;13.10;4.00;;;3.00;99.90;;;;;;5072245;28;20031;-66
2021/01/18 00:24:52;;;;;;;16.75;3.75;;;3.10;99.90;;;;;;5073046;28;20017;-66
2021/01/18 00:27:17;;;;;;;18.52;4.32;;;3.10;99.90;;;;;;5072991;28;20029;-67
2021/01/18 00:29:43;;;;;;;10.27;4.28;;;3.20;99.90;;;;;;5072895;28;20024;-66
2021/01/18 00:32:08;;;;;;;16.70;4.55;;;3.30;99.90;;;;;;5073972;28;20024;-67
2021/01/18 00:34:34;;;;;;;15.85;4.72;;;3.30;99.90;;;;;;5072313;28;20073;-67
2021/01/18 00:36:59;;;;;;;22.52;5.25;;;3.30;99.90;;;;;;5072033;28;20044;-67
2021/01/18 00:39:25;;;;;;;11.05;4.50;;;3.40;99.90;;;;;;5072607;28;20032;-67
2021/01/18 00:41:50;;;;;;;18.63;5.22;;;3.40;99.90;;;;;;5073010;28;20050;-67
2021/01/18 00:44:16;;;;;;;21.15;5.80;;;3.40;99.90;;;;;;5071868;28;20025;-67
2021/01/18 00:46:45;;;;;;;14.20;4.90;;;3.30;99.90;;;;;;5072756;28;20389;-66
2021/01/18 00:49:10;;;;;;;17.95;4.65;;;3.30;99.90;;;;;;5071894;28;20025;-68
2021/01/18 00:51:39;;;;;;;18.67;4.97;;;3.30;99.90;;;;;;5072425;28;20024;-67
2021/01/18 00:54:05;;;;;;;11.73;3.65;;;3.30;99.90;;;;;;5073051;28;20036;-67
2021/01/18 00:56:30;;;;;;;10.63;3.78;;;3.20;99.90;;;;;;5071868;28;20059;-66
2021/01/18 00:58:56;;;;;;;20.77;4.95;;;3.20;99.90;;;;;;5072718;28;20469;-66
2021/01/18 01:01:22;;;;;;;12.35;4.85;;;3.20;99.90;;;;;;5072105;28;20385;-66
2021/01/18 01:03:48;;;;;;;10.82;4.10;;;3.10;99.90;;;;;;5071780;28;20036;-67
2021/01/18 01:06:14;;;;;;;11.40;3.92;;;3.10;99.90;;;;;;5072243;28;20048;-67
2021/01/18 01:08:39;;;;;;;12.93;4.57;;;3.00;99.90;;;;;;5072463;28;20020;-67
2021/01/18 01:11:05;;;;;;;13.65;4.55;;;3.00;99.90;;;;;;5071740;28;20025;-67
2021/01/18 01:13:30;;;;;;;13.68;4.18;;;3.00;99.90;;;;;;5072190;28;20415;-67
2021/01/18 01:15:57;;;;;;;15.52;4.28;;;2.90;99.90;;;;;;5072799;28;20037;-67
2021/01/18 01:18:23;;;;;;;11.25;4.57;;;2.90;99.90;;;;;;5071455;28;20063;-66
2021/01/18 01:20:48;;;;;;;15.90;4.40;;;2.80;99.90;;;;;;5072506;28;20048;-67
2021/01/18 01:23:14;;;;;;;8.90;3.58;;;2.80;99.90;;;;;;5071980;28;20024;-67
2021/01/18 01:25:39;;;;;;;15.07;4.13;;;2.80;99.90;;;;;;5071669;28;20325;-67
2021/01/18 01:28:05;;;;;;;11.25;4.80;;;2.80;99.90;;;;;;5072429;28;20016;-67
2021/01/18 01:30:31;;;;;;;18.23;4.15;;;2.70;99.90;;;;;;5072137;28;20066;-67
2021/01/18 01:32:56;;;;;;;9.68;4.22;;;2.70;99.90;;;;;;5071368;28;20067;-67
2021/01/18 01:35:28;;;;;;;18.92;4.75;;;2.70;99.90;;;;;;5071585;28;20476;-67
2021/01/18 01:37:55;;;;;;;16.98;4.32;;;2.70;99.90;;;;;;5072203;28;20119;-67
2021/01/18 01:40:21;;;;;;;14.85;3.97;;;2.70;99.90;;;;;;5071069;28;20032;-67
2021/01/18 01:42:47;;;;;;;24.88;4.47;;;2.60;99.90;;;;;;5071727;28;20487;-68
2021/01/18 01:45:17;;;;;;;8.90;4.13;;;2.70;99.90;;;;;;5071729;28;20036;-68
2021/01/18 01:47:56;;;;;;;14.00;4.13;;;2.70;99.90;;;;;;5071222;28;20052;-67
2021/01/18 01:50:27;;;;;;;24.13;4.45;;;2.70;99.90;;;;;;5077461;28;20032;-67
2021/01/18 01:52:59;;;;;;;9.18;3.95;;;2.70;99.90;;;;;;5070960;28;20449;-67
2021/01/18 01:55:32;;;;;;;14.43;4.18;;;2.70;99.90;;;;;;5071104;28;20484;-67
2021/01/18 01:58:00;;;;;;;20.02;5.20;;;2.70;99.90;;;;;;5071674;28;20024;-66
2021/01/18 02:00:36;;;;;;;16.13;4.43;;;2.70;99.90;;;;;;5068519;28;20028;-67
2021/01/18 02:03:10;;;;;;;26.25;4.75;;;2.70;99.90;;;;;;5071794;28;20103;-66
2021/01/18 02:05:37;;;;;;;18.42;4.32;;;2.70;99.90;;;;;;5074484;28;20373;-67
2021/01/18 02:08:07;;;;;;;26.45;5.53;;;2.70;99.90;;;;;;5090827;28;20107;-67
2021/01/18 02:10:33;;;;;;;15.25;5.30;;;2.80;99.90;;;;;;5077693;28;20076;-67
2021/01/18 02:13:00;;;;;;;29.80;5.13;;;2.80;99.90;;;;;;5091341;28;20032;-67
2021/01/18 02:15:54;;;;;;;19.77;5.25;;;2.90;99.90;;;;;;5090560;28;20101;-67
2021/01/18 02:18:29;;;;;;;17.30;5.70;;;3.10;99.90;;;;;;5078169;28;20024;-68
2021/01/18 02:21:48;;;;;;;16.58;4.93;;;3.10;99.90;;;;;;5076928;28;20034;-67
2021/01/18 02:24:44;;;;;;;19.58;5.90;;;3.20;99.90;;;;;;5067948;28;20379;-67
2021/01/18 02:27:53;;;;;;;11.75;4.35;;;3.30;99.90;;;;;;5093803;28;20440;-67
2021/01/18 02:30:40;;;;;;;13.23;4.07;;;3.30;99.90;;;;;;5091021;28;20024;-67
2021/01/18 02:33:25;;;;;;;13.82;4.05;;;3.40;99.90;;;;;;5068467;28;20027;-67
2021/01/18 02:36:05;;;;;;;18.77;4.75;;;3.50;99.90;;;;;;5074749;28;20049;-66
2021/01/18 02:38:56;;;;;;;20.58;4.28;;;3.50;99.90;;;;;;5091200;28;20039;-67
2021/01/18 02:41:34;;;;;;;;;;;3.60;99.90;;;;;;5080295;28;20024;-67
2021/01/18 02:44:04;;;;;;;21.15;3.58;;;3.50;99.90;;;;;;5090761;28;19904;-67
2021/01/18 02:46:31;;;;;;;17.00;3.65;;;3.60;99.90;;;;;;5091068;28;20025;-67
2021/01/18 02:48:57;;;;;;;17.33;5.05;;;3.60;99.90;;;;;;5090560;28;20204;-67
2021/01/18 02:51:25;;;;;;;25.23;4.03;;;3.70;99.90;;;;;;5090594;28;20027;-67
2021/01/18 02:53:58;;;;;;;19.25;3.60;;;3.70;99.90;;;;;;5091182;28;20054;-67
2021/01/18 02:56:31;;;;;;;22.42;3.80;;;3.80;99.90;;;;;;5089970;28;20062;-67
2021/01/18 02:58:58;;;;;;;16.52;3.45;;;3.90;99.90;;;;;;5091133;28;20028;-68
2021/01/18 03:01:46;;;;;;;19.95;5.07;;;3.90;99.90;;;;;;5090348;28;20107;-67
2021/01/18 03:04:25;;;;;;;13.70;3.40;;;3.90;99.90;;;;;;5090097;28;20462;-67
2021/01/18 03:07:05;;;;;;;18.40;3.92;;;3.80;99.90;;;;;;5090816;28;20032;-67
2021/01/18 03:09:48;;;;;;;16.13;4.95;;;3.80;99.90;;;;;;5077572;28;20029;-67
2021/01/18 03:12:21;;;;;;;20.67;4.40;;;3.70;99.90;;;;;;5065015;28;20499;-67
2021/01/18 03:14:52;;;;;;;15.15;3.67;;;3.70;99.90;;;;;;5090489;28;20077;-67
2021/01/18 03:17:22;;;;;;;26.70;5.30;;;3.80;99.90;;;;;;5089718;28;20020;-66
2021/01/18 03:19:47;;;;;;;27.70;4.90;;;3.70;99.90;;;;;;5090799;28;20436;-68
2021/01/18 03:22:24;;;;;;;16.02;4.15;;;3.70;99.90;;;;;;5089660;28;20133;-67
2021/01/18 03:24:50;;;;;;;20.92;4.15;;;3.80;99.90;;;;;;5089919;28;20057;-67
2021/01/18 03:27:16;;;;;;;21.40;3.85;;;3.70;99.90;;;;;;5090099;28;20016;-66
2021/01/18 03:29:42;;;;;;;21.98;4.15;;;3.80;99.90;;;;;;5090778;28;20104;-67
2021/01/18 03:32:09;;;;;;;23.38;4.55;;;3.70;99.90;;;;;;5087036;28;20418;-67
2021/01/18 03:34:35;;;;;;;23.27;5.13;;;3.80;99.90;;;;;;5079255;28;20463;-67
2021/01/18 03:37:02;;;;;;;20.08;4.40;;;3.90;99.90;;;;;;5090113;28;20106;-67
2021/01/18 03:39:27;;;;;;;19.77;4.38;;;4.00;99.90;;;;;;5089995;28;20047;-67
2021/01/18 03:41:53;;;;;;;18.52;4.35;;;4.00;99.90;;;;;;5094448;28;20468;-67
2021/01/18 03:44:18;;;;;;;25.67;4.50;;;4.10;99.90;;;;;;5093883;28;20107;-67
2021/01/18 03:46:45;;;;;;;18.35;4.10;;;4.10;99.90;;;;;;5093827;28;20062;-67
2021/01/18 03:49:12;;;;;;;21.08;4.72;;;4.10;99.90;;;;;;5094282;28;20047;-67
2021/01/18 03:51:38;;;;;;;28.30;5.25;;;4.20;99.90;;;;;;5094044;28;20348;-68
2021/01/18 03:54:03;;;;;;;25.23;7.10;;;4.10;99.90;;;;;;5093601;28;20040;-67
2021/01/18 03:56:29;;;;;;;14.60;4.80;;;4.20;99.90;;;;;;5093676;28;20474;-68
2021/01/18 03:58:54;;;;;;;20.88;5.47;;;4.10;99.90;;;;;;5094368;28;20092;-67
2021/01/18 04:01:20;;;;;;;32.83;5.80;;;4.00;99.90;;;;;;5092792;28;20486;-69
2021/01/18 04:03:45;;;;;;;31.50;5.68;;;4.00;99.90;;;;;;5094018;28;20032;-68
2021/01/18 04:06:11;;;;;;;21.42;5.15;;;3.90;99.90;;;;;;5093136;28;20028;-67
2021/01/18 04:08:37;;;;;;;18.83;6.80;;;3.90;99.90;;;;;;5088021;28;20126;-67
2021/01/18 04:11:02;;;;;;;15.57;4.72;;;3.90;99.90;;;;;;5083853;28;20035;-67
2021/01/18 04:13:28;;;;;;;20.30;5.32;;;3.90;99.90;;;;;;5092761;28;20492;-67
2021/01/18 04:15:53;;;;;;;45.40;7.40;;;3.80;99.90;;;;;;5094360;28;20036;-67
2021/01/18 04:18:19;;;;;;;20.58;4.63;;;3.90;99.90;;;;;;5093664;28;20031;-67
2021/01/18 04:20:44;;;;;;;28.73;4.85;;;3.80;99.90;;;;;;5093118;28;20032;-67
2021/01/18 04:23:10;;;;;;;23.90;5.13;;;3.80;99.90;;;;;;5093673;28;20132;-67
2021/01/18 04:25:35;;;;;;;27.42;5.88;;;3.80;99.90;;;;;;5093333;28;20119;-67
2021/01/18 04:28:04;;;;;;;24.80;6.07;;;3.80;99.90;;;;;;5093261;28;20036;-68
2021/01/18 04:30:37;;;;;;;17.55;5.65;;;3.80;99.90;;;;;;5093487;28;20020;-67
2021/01/18 04:33:05;;;;;;;28.83;6.30;;;3.80;99.90;;;;;;5093757;28;20118;-67
2021/01/18 04:35:33;;;;;;;26.40;5.60;;;3.70;99.90;;;;;;5092178;28;20071;-67
2021/01/18 04:37:59;;;;;;;20.48;6.43;;;3.70;99.90;;;;;;5093501;28;20415;-67
2021/01/18 04:40:27;;;;;;;25.45;5.90;;;3.70;99.90;;;;;;5092845;28;20028;-68
2021/01/18 04:42:54;;;;;;;17.95;5.20;;;3.70;99.90;;;;;;5092901;28;20032;-67
2021/01/18 04:45:22;;;;;;;26.73;6.45;;;3.70;99.90;;;;;;5093216;28;20162;-67
2021/01/18 04:47:51;;;;;;;21.10;6.35;;;3.60;99.90;;;;;;5093421;28;20039;-67
2021/01/18 04:50:18;;;;;;;22.50;4.78;;;3.60;99.90;;;;;;5092383;28;20024;-68
2021/01/18 04:52:48;;;;;;;23.58;6.43;;;3.60;99.90;;;;;;5091921;28;20036;-67
2021/01/18 04:55:30;;;;;;;32.27;8.10;;;3.60;99.90;;;;;;5092887;28;20036;-67
2021/01/18 04:58:04;;;;;;;22.42;6.25;;;3.50;99.90;;;;;;5093190;28;20013;-67
2021/01/18 05:00:50;;;;;;;30.13;6.22;;;3.50;99.90;;;;;;5093076;28;20032;-67
2021/01/18 05:03:21;;;;;;;28.90;6.03;;;3.50;99.90;;;;;;5091941;28;20424;-68
2021/01/18 05:05:52;;;;;;;25.63;6.57;;;3.50;99.90;;;;;;5093118;28;20039;-67
2021/01/18 05:08:45;;;;;;;25.42;5.80;;;3.50;99.90;;;;;;5089883;28;20444;-68
2021/01/18 05:11:15;;;;;;;33.90;6.13;;;3.50;99.90;;;;;;5084738;28;20035;-68
2021/01/18 05:13:42;;;;;;;31.38;6.30;;;3.60;99.90;;;;;;5091637;28;20032;-67
2021/01/18 05:16:08;;;;;;;29.42;6.97;;;3.60;99.90;;;;;;5093411;28;20089;-68
2021/01/18 05:18:35;;;;;;;22.35;6.15;;;3.60;99.90;;;;;;5093498;28;20024;-68
2021/01/18 05:21:02;;;;;;;20.98;7.70;;;3.60;99.90;;;;;;5091965;28;20081;-68
2021/01/18 05:23:27;;;;;;;28.80;7.35;;;3.60;99.90;;;;;;5076622;28;20021;-67
2021/01/18 05:26:16;;;;;;;21.77;6.05;;;3.60;99.90;;;;;;5093347;28;20850;-67
2021/01/18 05:28:45;;;;;;;33.97;6.75;;;3.70;99.90;;;;;;5092541;28;20028;-68
2021/01/18 05:31:30;;;;;;;29.35;6.50;;;3.70;99.90;;;;;;5091788;28;20024;-67
2021/01/18 05:33:56;;;;;;;25.92;7.13;;;3.70;99.90;;;;;;5092272;28;20027;-67
2021/01/18 05:36:38;;;;;;;29.23;7.75;;;3.70;99.90;;;;;;5091756;28;20043;-68
2021/01/18 05:39:12;;;;;;;27.02;7.03;;;3.70;99.90;;;;;;5077254;28;20083;-67
2021/01/18 05:41:38;;;;;;;28.98;7.82;;;3.70;99.90;;;;;;5092451;28;20024;-66
2021/01/18 05:44:05;;;;;;;25.10;8.43;;;3.80;99.90;;;;;;5092188;28;20027;-67
2021/01/18 05:46:33;;;;;;;30.20;8.90;;;3.80;99.90;;;;;;5091384;28;20349;-67
2021/01/18 05:49:07;;;;;;;28.65;8.93;;;3.80;99.90;;;;;;5091660;28;20016;-68
2021/01/18 05:51:34;;;;;;;29.55;7.85;;;3.90;99.90;;;;;;5091746;28;20058;-67
2021/01/18 05:54:01;;;;;;;36.35;6.97;;;3.90;99.90;;;;;;5092125;28;20024;-66
2021/01/18 05:56:38;;;;;;;24.40;8.02;;;3.90;99.90;;;;;;5091593;28;20036;-68
2021/01/18 05:59:18;;;;;;;20.83;6.88;;;3.90;99.90;;;;;;5091302;28;20030;-67
2021/01/18 06:01:46;;;;;;;20.88;6.60;;;3.80;99.90;;;;;;5091833;28;20032;-66
2021/01/18 06:04:16;;;;;;;27.23;6.60;;;3.90;99.90;;;;;;5091418;28;20024;-67
2021/01/18 06:06:43;;;;;;;;;;;3.90;99.90;;;;;;5091841;28;20081;-67
2021/01/18 06:09:09;;;;;;;28.75;9.63;;;3.90;99.90;;;;;;5081818;28;20329;-68
2021/01/18 06:11:35;;;;;;;26.33;7.53;;;3.90;99.90;;;;;;5073053;28;20086;-67
2021/01/18 06:14:03;;;;;;;22.23;7.35;;;3.90;99.90;;;;;;5090875;28;20535;-68
2021/01/18 06:16:30;;;;;;;33.15;7.68;;;3.90;99.90;;;;;;5091430;28;20115;-68
2021/01/18 06:19:01;;;;;;;23.13;7.75;;;3.90;99.90;;;;;;5091883;28;20039;-68
2021/01/18 06:21:38;;;;;;;22.63;6.55;;;3.90;99.90;;;;;;5090813;28;20020;-68
2021/01/18 06:24:27;;;;;;;33.10;8.98;;;3.90;99.90;;;;;;5064918;28;20024;-68
2021/01/18 06:26:53;;;;;;;28.92;7.35;;;3.90;99.90;;;;;;5090564;28;20486;-67
2021/01/18 06:29:40;;;;;;;38.15;7.30;;;3.90;99.90;;;;;;5091252;28;20032;-67
2021/01/18 06:32:08;;;;;;;31.90;6.63;;;3.90;99.90;;;;;;5091444;28;20030;-67
2021/01/18 06:34:34;;;;;;;19.75;6.93;;;3.90;99.90;;;;;;5090386;28;20092;-67
2021/01/18 06:37:00;;;;;;;28.17;7.13;;;3.90;99.90;;;;;;5090631;28;20044;-67
2021/01/18 06:39:27;;;;;;;20.08;6.70;;;3.90;99.90;;;;;;5091216;28;20027;-67
2021/01/18 06:42:01;;;;;;;31.38;8.98;;;4.00;99.90;;;;;;5090540;28;20054;-66
2021/01/18 06:44:38;;;;;;;36.70;8.27;;;4.00;99.90;;;;;;5063516;28;20359;-66
2021/01/18 06:47:27;;;;;;;26.85;6.93;;;4.00;99.90;;;;;;5091054;28;20038;-67
2021/01/18 06:49:57;;;;;;;34.20;6.35;;;4.00;99.90;;;;;;5090955;28;20036;-67
2021/01/18 06:52:30;;;;;;;21.20;7.20;;;4.10;99.90;;;;;;5076503;28;20498;-67
2021/01/18 06:55:23;;;;;;;28.95;7.40;;;4.10;99.90;;;;;;5090645;28;20510;-67
2021/01/18 06:58:07;;;;;;;25.77;7.25;;;4.00;99.90;;;;;;5090899;28;20012;-67
2021/01/18 07:00:40;;;;;;;28.02;7.00;;;4.00;99.90;;;;;;5091043;28;20039;-67
2021/01/18 07:03:25;;;;;;;23.27;7.05;;;4.10;99.90;;;;;;5090720;28;20012;-67
2021/01/18 07:05:54;;;;;;;31.20;7.50;;;4.00;99.90;;;;;;5090935;28;20020;-67
2021/01/18 07:08:21;;;;;;;31.40;7.80;;;4.00;99.90;;;;;;5087210;28;20124;-67
2021/01/18 07:10:52;;;;;;;24.52;9.20;;;4.10;99.90;;;;;;5079529;28;20024;-67
2021/01/18 07:13:18;;;;;;;29.70;7.57;;;4.00;99.90;;;;;;5090474;28;20035;-67
2021/01/18 07:15:45;;;;;;;34.60;6.65;;;4.00;99.90;;;;;;5093103;28;20028;-67
2021/01/18 07:18:11;;;;;;;27.77;7.07;;;4.00;99.90;;;;;;5094701;28;20024;-67
2021/01/18 07:20:42;;;;;;;29.13;7.15;;;4.00;99.90;;;;;;5094672;28;20051;-67
2021/01/18 07:23:20;;;;;;;;;;;4.00;99.90;;;;;;5094534;28;20031;-67
2021/01/18 07:25:47;;;;;;;21.63;6.40;;;4.00;99.90;;;;;;5094887;28;20382;-67
2021/01/18 07:28:17;;;;;;;24.52;8.18;;;4.00;99.90;;;;;;5093153;28;20430;-67
2021/01/18 07:30:42;;;;;;;32.03;7.10;;;4.00;99.90;;;;;;5093861;28;20059;-68
2021/01/18 07:33:12;;;;;;;25.13;7.38;;;4.00;99.90;;;;;;5094771;28;20070;-67
2021/01/18 07:35:39;;;;;;;35.03;7.10;;;4.10;99.90;;;;;;5094796;28;20086;-66
2021/01/18 07:38:18;;;;;;;24.58;8.00;;;4.00;99.90;;;;;;5093791;28;20520;-66
2021/01/18 07:41:08;;;;;;;27.83;7.43;;;4.10;99.90;;;;;;5094748;28;20110;-66
2021/01/18 07:43:37;;;;;;;39.92;6.68;;;4.10;99.90;;;;;;5089769;28;20028;-67
2021/01/18 07:46:25;;;;;;;21.65;6.45;;;4.10;99.90;;;;;;5089867;28;20027;-67
2021/01/18 07:49:12;;;;;;;23.67;6.05;;;4.10;99.90;;;;;;5089177;28;20581;-67
2021/01/18 07:51:38;;;;;;;29.20;6.80;;;4.10;99.90;;;;;;5091831;28;20035;-67
2021/01/18 07:54:03;;;;;;;31.50;8.00;;;4.10;99.90;;;;;;5083807;28;20020;-67
2021/01/18 07:56:33;;;;;;;33.38;7.70;;;4.10;99.90;;;;;;5088380;28;20455;-67
2021/01/18 07:59:03;;;;;;;28.17;7.40;;;4.20;99.90;;;;;;5086488;28;20047;-67
2021/01/18 08:01:34;;;;;;;21.30;5.88;;;4.20;99.90;;;;;;5079259;28;20046;-67
2021/01/18 08:04:16;;;;;;;25.05;6.15;;;4.30;99.90;;;;;;5079491;28;20024;-67
2021/01/18 08:07:01;;;;;;;36.00;8.43;;;4.30;99.90;;;;;;5088587;28;20064;-66
2021/01/18 08:09:26;;;;;;;18.73;4.38;;;4.40;99.90;;;;;;5089670;28;20020;-67
2021/01/18 08:11:52;;;;;;;29.88;5.30;;;4.40;99.90;;;;;;5088232;28;20109;-66
2021/01/18 08:14:18;;;;;;;28.05;5.38;;;4.50;99.90;;;;;;5091480;28;20023;-67
2021/01/18 08:16:44;;;;;;;23.10;4.90;;;4.50;99.90;;;;;;5088595;28;20792;-67
2021/01/18 08:19:15;;;;;;;17.38;5.50;;;4.60;99.90;;;;;;5089951;28;20118;-67
2021/01/18 08:21:46;;;;;;;31.50;5.55;;;4.60;99.90;;;;;;5089882;28;20054;-65
2021/01/18 08:24:14;;;;;;;19.05;5.35;;;4.60;99.90;;;;;;5085986;28;20017;-65
2021/01/18 08:27:06;;;;;;;25.65;5.35;;;4.60;99.90;;;;;;5073423;28;20090;-65
2021/01/18 08:29:48;;;;;;;17.83;5.30;;;4.70;99.90;;;;;;5072264;28;20025;-66
2021/01/18 08:32:25;;;;;;;22.83;5.57;;;4.70;99.90;;;;;;5073901;28;20062;-66
2021/01/18 08:34:56;;;;;;;22.10;4.97;;;4.70;99.90;;;;;;5073307;28;20021;-65
2021/01/18 08:37:22;;;;;;;23.17;4.88;;;4.70;99.90;;;;;;5077445;28;20121;-66
2021/01/18 08:40:01;;;;;;;22.13;5.00;;;4.80;99.90;;;;;;5093600;28;20036;-65
2021/01/18 08:42:31;;;;;;;20.23;5.07;;;4.80;99.90;;;;;;5087008;28;20039;-66
2021/01/18 08:45:07;;;;;;;26.38;5.03;;;4.80;99.90;;;;;;5090885;28;20055;-65
2021/01/18 08:47:41;;;;;;;19.75;5.18;;;4.90;99.90;;;;;;5083437;28;20128;-64
2021/01/18 08:50:20;;;;;;;22.55;4.30;;;4.90;99.90;;;;;;5091205;28;20028;-64
2021/01/18 08:52:50;;;;;;;30.65;4.82;;;5.00;99.90;;;;;;5089565;28;20122;-65
2021/01/18 08:55:31;;;;;;;14.87;6.83;;;5.00;99.90;;;;;;5091795;28;20480;-65
2021/01/18 08:58:04;;;;;;;20.77;5.22;;;5.10;99.90;;;;;;5090275;28;20031;-66
2021/01/18 09:00:42;;;;;;;18.92;6.53;;;5.10;99.90;;;;;;5090785;28;20039;-65
2021/01/18 09:03:15;;;;;;;20.80;4.75;;;5.20;99.90;;;;;;5087504;28;20020;-66
2021/01/18 09:05:41;;;;;;;24.58;5.60;;;5.20;99.90;;;;;;5091884;28;20158;-65
2021/01/18 09:08:08;;;;;;;16.20;5.18;;;5.20;99.90;;;;;;5089281;28;20103;-65
2021/01/18 09:10:34;;;;;;;14.88;4.93;;;5.30;99.90;;;;;;5089070;28;20032;-66
2021/01/18 09:13:04;;;;;;;17.25;4.88;;;5.30;99.90;;;;;;5087604;28;20035;-66
2021/01/18 09:15:30;;;;;;;19.35;5.45;;;5.40;99.90;;;;;;5088001;28;20035;-65
2021/01/18 09:17:56;;;;;;;19.88;5.13;;;5.40;99.90;;;;;;5091513;28;20492;-65
2021/01/18 09:20:22;;;;;;;22.38;5.22;;;5.40;99.90;;;;;;5089203;28;20107;-65
2021/01/18 09:22:47;;;;;;;27.02;4.78;;;5.40;99.90;;;;;;5091265;28;20024;-66
2021/01/18 09:25:17;;;;;;;18.30;4.50;;;5.40;99.90;;;;;;5073560;28;20078;-66
2021/01/18 09:27:43;;;;;;;20.60;5.47;;;5.40;99.90;;;;;;5075832;28;20503;-65
2021/01/18 09:30:16;;;;;;;17.27;5.45;;;5.50;99.90;;;;;;5084079;28;20040;-66
2021/01/18 09:32:56;;;;;;;22.08;5.00;;;5.40;99.90;;;;;;5086334;28;20071;-66
2021/01/18 09:35:22;;;;;;;21.48;4.82;;;5.40;99.90;;;;;;5066260;28;20032;-66
2021/01/18 09:37:49;;;;;;;20.25;5.20;;;5.50;99.90;;;;;;5071489;28;20071;-66
2021/01/18 09:40:16;;;;;;;26.90;5.88;;;5.50;99.90;;;;;;5072303;28;20027;-65
2021/01/18 09:42:44;;;;;;;23.13;5.30;;;5.50;99.90;;;;;;5073109;28;20025;-66
2021/01/18 09:45:10;;;;;;;17.67;4.97;;;5.50;99.90;;;;;;5072358;28;20020;-65
2021/01/18 09:47:36;;;;;;;19.52;5.45;;;5.50;99.90;;;;;;5076523;28;20039;-65
2021/01/18 09:50:19;;;;;;;12.98;4.78;;;5.60;99.90;;;;;;5090854;28;20027;-65
2021/01/18 09:52:52;;;;;;;15.88;5.30;;;5.60;99.90;;;;;;5088863;28;20107;-66
2021/01/18 09:55:27;;;;;;;17.50;4.97;;;5.60;99.90;;;;;;5071794;28;20028;-66
2021/01/18 09:58:03;;;;;;;22.23;5.10;;;5.60;99.90;;;;;;5072247;28;20032;-67
2021/01/18 10:00:30;;;;;;;25.92;8.20;;;5.60;99.90;;;;;;5078246;28;20029;-65
2021/01/18 10:02:58;;;;;;;23.23;5.57;;;5.70;99.90;;;;;;5085585;28;20543;-65
2021/01/18 10:05:32;;;;;;;25.13;5.28;;;5.70;99.90;;;;;;5075674;28;20082;-64
2021/01/18 10:08:01;;;;;;;15.63;4.63;;;5.70;99.90;;;;;;5083497;28;20036;-65
2021/01/18 10:10:26;;;;;;;15.43;5.43;;;5.70;99.90;;;;;;5071361;28;20028;-64
2021/01/18 10:12:54;;;;;;;10.95;4.97;;;5.70;99.90;;;;;;5074686;28;20082;-65
2021/01/18 10:15:27;;;;;;;20.83;5.18;;;5.80;99.90;;;;;;5064145;28;20041;-66
2021/01/18 10:17:55;;;;;;;15.15;4.68;;;5.80;99.90;;;;;;5083428;28;20020;-67
2021/01/18 10:20:30;;;;;;;13.80;4.72;;;5.80;99.90;;;;;;5080442;28;20032;-65
2021/01/18 10:22:57;;;;;;;18.73;6.03;;;5.80;99.90;;;;;;5062947;28;20117;-64
2021/01/18 10:25:28;;;;;;;13.10;3.75;;;5.90;99.90;;;;;;5068346;28;20025;-64
2021/01/18 10:27:56;;;;;;;20.38;4.63;;;5.90;99.90;;;;;;5071460;28;20491;-64
2021/01/18 10:30:28;;;;;;;25.50;4.85;;;5.90;99.90;;;;;;5088727;28;20531;-65
2021/01/18 10:32:55;;;;;;;25.35;6.40;;;6.00;99.90;;;;;;5083364;28;20040;-65
2021/01/18 10:35:30;;;;;;;15.95;5.25;;;6.00;99.90;;;;;;5088268;28;20119;-65
2021/01/18 10:38:15;;;;;;;12.75;4.32;;;6.00;99.90;;;;;;5086765;28;20507;-64
2021/01/18 10:40:43;;;;;;;18.73;4.50;;;6.10;99.90;;;;;;5089290;28;20032;-66
2021/01/18 10:43:11;;;;;;;16.70;4.78;;;6.10;99.90;;;;;;5083951;28;20395;-65
2021/01/18 10:45:42;;;;;;;24.95;5.82;;;6.10;99.90;;;;;;5090836;28;20023;-66
2021/01/18 10:48:09;;;;;;;16.42;4.63;;;6.20;99.90;;;;;;5090379;28;20088;-65
2021/01/18 10:50:35;;;;;;;23.13;5.05;;;6.20;99.90;;;;;;5084904;28;20019;-65
2021/01/18 10:53:06;;;;;;;23.52;5.43;;;6.20;99.90;;;;;;5088198;28;20032;-64
2021/01/18 10:55:31;;;;;;;24.95;5.13;;;6.20;99.90;;;;;;5087568;28;20036;-65
2021/01/18 10:57:57;;;;;;;16.52;4.18;;;6.30;99.90;;;;;;5089235;28;20024;-65
2021/01/18 11:00:25;;;;;;;17.95;4.60;;;6.30;99.90;;;;;;5085447;28;20381;-66
2021/01/18 11:02:58;;;;;;;10.63;3.67;;;6.30;99.90;;;;;;5089494;28;20486;-66
2021/01/18 11:05:31;;;;;;;22.95;5.90;;;6.40;99.90;;;;;;5088629;28;20028;-66
2021/01/18 11:07:59;;;;;;;8.48;3.63;;;6.40;99.90;;;;;;5090031;28;20220;-67
2021/01/18 11:10:25;;;;;;;22.15;4.55;;;6.40;99.90;;;;;;5077668;28;20021;-66
2021/01/18 11:13:01;;;;;;;17.52;4.65;;;6.40;99.90;;;;;;5083029;28;20016;-66
2021/01/18 11:15:33;;;;;;;27.27;5.82;;;6.40;99.90;;;;;;5089478;28;20035;-66
2021/01/18 11:17:59;;;;;;;24.08;6.55;;;6.40;99.90;;;;;;5088587;28;20078;-66
2021/01/18 11:20:26;;;;;;;21.27;4.32;;;6.40;99.90;;;;;;5086205;28;20052;-66
2021/01/18 11:22:52;;;;;;;18.98;4.45;;;6.40;99.90;;;;;;5083887;28;20051;-65
2021/01/18 11:25:18;;;;;;;22.48;6.70;;;6.50;99.90;;;;;;5088268;28;20040;-65
2021/01/18 11:27:44;;;;;;;12.32;4.10;;;6.50;99.90;;;;;;5090291;28;20036;-65
2021/01/18 11:30:10;;;;;;;28.52;7.35;;;6.50;99.90;;;;;;5075770;28;20094;-65
2021/01/18 11:32:36;;;;;;;32.88;9.65;;;6.50;99.90;;;;;;5070811;28;20025;-65
2021/01/18 11:35:02;;;;;;;24.42;6.75;;;6.50;99.90;;;;;;5071094;28;20025;-66
2021/01/18 11:37:27;;;;;;;25.90;6.47;;;6.60;99.90;;;;;;5070116;28;20048;-67
2021/01/18 11:39:53;;;;;;;26.40;5.55;;;6.60;99.90;;;;;;5071472;28;20032;-66
2021/01/18 11:42:18;;;;;;;17.52;3.92;;;6.80;99.90;;;;;;5070274;28;20020;-66
2021/01/18 11:44:44;;;;;;;17.77;4.20;;;6.90;99.90;;;;;;5070632;28;20024;-66
2021/01/18 11:47:09;;;;;;;18.55;5.47;;;7.00;99.90;;;;;;5071118;28;20032;-67
2021/01/18 11:49:35;;;;;;;18.20;3.83;;;7.10;99.90;;;;;;5070612;28;20029;-66
2021/01/18 11:52:01;;;;;;;19.67;5.78;;;7.20;99.90;;;;;;5082791;28;20023;-66
2021/01/18 11:54:26;;;;;;;23.83;5.78;;;7.30;99.90;;;;;;5075560;28;20050;-66
2021/01/18 11:56:52;;;;;;;24.27;4.63;;;7.30;99.90;;;;;;5072497;28;20028;-66
2021/01/18 11:59:18;;;;;;;17.90;3.78;;;7.40;99.90;;;;;;5070321;28;20122;-65
2021/01/18 12:01:44;;;;;;;15.20;4.07;;;7.50;99.90;;;;;;5081769;28;20032;-66
2021/01/18 12:04:10;;;;;;;18.75;3.50;;;7.50;99.90;;;;;;5073364;28;20047;-66
2021/01/18 12:06:37;;;;;;;29.60;4.68;;;7.70;99.90;;;;;;5072887;28;20054;-66
2021/01/18 12:09:09;;;;;;;12.30;3.78;;;7.80;99.90;;;;;;5071701;28;20028;-66
2021/01/18 12:11:39;;;;;;;22.58;3.47;;;7.80;99.90;;;;;;5089595;28;20403;-66
2021/01/18 12:14:06;;;;;;;15.75;2.97;;;7.80;99.90;;;;;;5084200;28;20020;-65
2021/01/18 12:16:31;;;;;;;15.65;2.78;;;7.80;99.90;;;;;;5088340;28;20040;-65
2021/01/18 12:18:57;;;;;;;12.25;2.72;;;7.60;99.90;;;;;;5094310;28;20031;-65
2021/01/18 12:21:23;;;;;;;17.02;3.42;;;7.60;99.90;;;;;;5094518;28;20050;-65
2021/01/18 12:23:48;;;;;;;16.40;3.67;;;7.40;99.90;;;;;;5088504;28;20043;-65
2021/01/18 12:26:16;;;;;;;18.95;3.53;;;7.40;99.90;;;;;;5072849;28;20051;-66
2021/01/18 12:28:41;;;;;;;13.48;2.90;;;7.30;99.90;;;;;;5073716;28;20052;-66
2021/01/18 12:31:07;;;;;;;13.52;2.90;;;7.30;99.90;;;;;;5078234;28;20475;-65
2021/01/18 12:33:32;;;;;;;21.35;3.53;;;7.20;99.90;;;;;;5070086;28;20021;-65
2021/01/18 12:35:58;;;;;;;15.85;4.07;;;7.20;99.90;;;;;;5071162;28;20113;-67
2021/01/18 12:38:23;;;;;;;15.50;3.47;;;7.20;99.90;;;;;;5073231;28;20499;-65
2021/01/18 12:40:49;;;;;;;27.73;3.97;;;7.30;99.90;;;;;;5072496;28;20078;-66
2021/01/18 12:43:18;;;;;;;12.20;4.43;;;7.20;99.90;;;;;;5073609;28;20028;-66
2021/01/18 12:45:45;;;;;;;18.13;4.57;;;7.20;99.90;;;;;;5073541;28;20047;-66
2021/01/18 12:48:11;;;;;;;16.35;2.72;;;7.20;99.90;;;;;;5073428;28;20082;-66
2021/01/18 12:50:37;;;;;;;13.25;2.90;;;7.30;99.90;;;;;;5073397;28;20026;-66
2021/01/18 12:53:03;;;;;;;11.30;3.33;;;7.30;99.90;;;;;;5073210;28;20075;-66
2021/01/18 12:55:29;;;;;;;11.27;3.78;;;7.30;99.90;;;;;;5068131;28;20040;-65
2021/01/18 12:57:55;;;;;;;12.13;3.00;;;7.30;99.90;;;;;;5077190;28;20032;-65
2021/01/18 13:00:21;;;;;;;23.33;3.30;;;7.30;99.90;;;;;;5089510;28;20070;-66
2021/01/18 13:02:46;;;;;;;19.67;5.38;;;7.30;99.90;;;;;;5090412;28;20123;-66